CheckWX is a tool to help pilots better visualize weather data.  It is not intended as a substitute for an official pre-flight weather briefing.

08:22:14 UTC

ENHF METAR
Hammerfest Airport
Hammerfest, Norway
Current

32 mins ago

ENHF 220750Z VRB06KT 9999 FEW030 BKN120 01/M06 Q1015 RMK WIND 1254FT 19012KT
Observed
Feb-22 @ 07:50 UTC
Wind
  • Variable at 6 KTS
Visibility
10,000+ meters
Flight Rules
VFR
Cloud Levels
  • Few at 3,000' AGL
  • Broken at 12,000' AGL
Temperature
C / 34°F
Dewpoint
-6°C / 21°F
Humidity
60%
Altimeter
29.97" Hg
Pressure
1014.92 hPa
Previous

1 hour ago

ENHF 220720Z VRB02G13KT 9999 FEW030 BKN130 00/M06 Q1016 RMK WIND 1254FT 19012KT
Observed
Feb-22 @ 07:20 UTC
Wind
  • Variable at 2 KTS
  • Gusting to KTS
Visibility
10,000+ meters
Flight Rules
VFR
Cloud Levels
  • Few at 3,000' AGL
  • Broken at 13,000' AGL
Temperature
C / 32°F
Dewpoint
-6°C / 21°F
Humidity
64%
Altimeter
30" Hg
Pressure
1015.92 hPa
Previous

2 hours ago

ENHF 220650Z 20007KT 160V240 9999 FEW030 SCT150 00/M06 Q1016 RMK WIND 1254FT 20016KT
Observed
Feb-22 @ 06:50 UTC
Wind
  • 200° at 7 KTS
Visibility
10,000+ meters
Flight Rules
VFR
Cloud Levels
  • Few at 3,000' AGL
  • Scattered at 15,000' AGL
Temperature
C / 32°F
Dewpoint
-6°C / 21°F
Humidity
64%
Altimeter
30" Hg
Pressure
1015.92 hPa